createdAt,value
2022-11-14T00:02:12.683Z,10.68
2022-11-14T00:06:14.430Z,10.45
2022-11-14T00:10:16.394Z,10.38
2022-11-14T00:14:18.257Z,11.02
2022-11-14T00:18:20.243Z,10.13
2022-11-14T00:22:22.074Z,10.23
2022-11-14T00:26:23.548Z,11.02
2022-11-14T00:30:25.448Z,10.73
2022-11-14T00:34:27.156Z,12.55
2022-11-14T00:38:29.010Z,10.95
2022-11-14T00:42:30.859Z,10.73
2022-11-14T00:46:32.323Z,10.80
2022-11-14T00:50:35.005Z,10.73
2022-11-14T00:54:36.568Z,11.50
2022-11-14T00:58:38.080Z,11.30
2022-11-14T01:02:39.649Z,10.85
2022-11-14T01:06:41.116Z,10.68
2022-11-14T01:10:44.652Z,11.23
2022-11-14T01:14:46.084Z,10.95
2022-11-14T01:18:48.187Z,11.98
2022-11-14T01:22:49.647Z,11.65
2022-11-14T01:26:51.271Z,13.20
2022-11-14T01:30:52.724Z,11.98
2022-11-14T01:34:55.978Z,12.05
2022-11-14T01:38:57.652Z,12.88
2022-11-14T01:43:11.269Z,14.27
2022-11-14T01:47:17.595Z,13.85
2022-11-14T01:51:39.720Z,15.48
2022-11-14T01:55:41.248Z,14.93
2022-11-14T01:59:47.800Z,16.48
2022-11-14T02:03:51.026Z,14.85
2022-11-14T02:07:52.497Z,16.77
2022-11-14T02:11:56.713Z,17.23
2022-11-14T02:15:58.638Z,15.38
2022-11-14T02:20:11.518Z,14.23
2022-11-14T02:24:14.051Z,16.30
2022-11-14T02:28:15.500Z,17.73
2022-11-14T02:32:16.971Z,16.67
2022-11-14T02:36:18.556Z,14.50
2022-11-14T02:40:20.036Z,15.57
2022-11-14T02:44:21.639Z,21.40
2022-11-14T02:48:23.038Z,15.85
2022-11-14T02:52:24.468Z,14.70
2022-11-14T02:56:26.021Z,13.30
2022-11-14T03:00:27.975Z,13.70
2022-11-14T03:04:29.516Z,14.07
2022-11-14T03:08:31.206Z,13.63
2022-11-14T03:12:32.951Z,14.32
2022-11-14T03:16:34.622Z,14.50
2022-11-14T03:20:36.349Z,13.35
2022-11-14T03:24:38.778Z,12.18
2022-11-14T03:28:41.247Z,12.32
2022-11-14T03:32:42.721Z,11.65
2022-11-14T03:36:44.310Z,12.88
2022-11-14T03:40:45.761Z,11.98
2022-11-14T03:44:47.245Z,12.20
2022-11-14T03:48:48.844Z,10.88
2022-11-14T03:52:50.557Z,11.98
2022-11-14T03:56:52.049Z,11.32
2022-11-14T04:00:55.951Z,10.82
2022-11-14T04:04:57.776Z,11.35
2022-11-14T04:09:00.125Z,9.75
2022-11-14T04:13:01.568Z,11.35
2022-11-14T04:17:03.418Z,11.18
2022-11-14T04:21:05.040Z,10.77
2022-11-14T04:25:08.271Z,11.77
2022-11-14T04:29:09.804Z,11.88
2022-11-14T04:33:12.877Z,9.85
2022-11-14T04:37:14.260Z,11.23
2022-11-14T04:41:15.690Z,11.13
2022-11-14T04:45:17.303Z,11.52
2022-11-14T04:49:18.900Z,10.32
2022-11-14T04:53:20.402Z,10.65
2022-11-14T04:57:21.949Z,11.45
2022-11-14T05:01:23.816Z,9.93
2022-11-14T05:05:25.417Z,12.00
2022-11-14T05:09:27.192Z,11.15
2022-11-14T05:13:28.798Z,10.52
2022-11-14T05:17:30.221Z,11.88
2022-11-14T05:21:31.728Z,10.18
2022-11-14T05:25:33.211Z,10.00
2022-11-14T05:29:34.798Z,9.50
2022-11-14T05:33:36.791Z,10.68
2022-11-14T05:37:38.629Z,9.10
2022-11-14T05:41:40.491Z,10.60
2022-11-14T05:45:41.916Z,10.15
2022-11-14T05:49:43.497Z,11.02
2022-11-14T05:53:45.019Z,10.25
2022-11-14T05:57:46.481Z,9.63
2022-11-14T06:01:48.090Z,11.10
2022-11-14T06:05:49.652Z,10.68
2022-11-14T06:09:51.487Z,10.73
2022-11-14T06:13:53.017Z,9.57
2022-11-14T06:17:54.587Z,11.07
2022-11-14T06:21:56.232Z,10.80
2022-11-14T06:26:06.568Z,10.68
2022-11-14T06:30:08.838Z,9.82
2022-11-14T06:34:12.164Z,9.88
2022-11-14T06:38:13.755Z,8.57
2022-11-14T06:42:16.106Z,8.38
2022-11-14T06:46:19.837Z,8.48
2022-11-14T06:50:21.431Z,8.13
2022-11-14T06:54:23.089Z,9.32
2022-11-14T06:58:29.776Z,10.75
2022-11-14T07:02:31.643Z,10.18
2022-11-14T07:06:33.181Z,9.40
2022-11-14T07:10:34.696Z,8.90
2022-11-14T07:14:36.160Z,8.02
2022-11-14T07:18:38.259Z,8.73
2022-11-14T07:22:39.663Z,8.48
2022-11-14T07:26:41.115Z,8.75
2022-11-14T07:30:42.825Z,8.88
2022-11-14T07:34:44.381Z,8.73
2022-11-14T07:38:46.171Z,8.32
2022-11-14T07:42:48.299Z,9.95
2022-11-14T07:46:50.518Z,10.32
2022-11-14T07:50:52.160Z,9.10
2022-11-14T07:54:53.620Z,9.50
2022-11-14T07:58:55.331Z,8.85
2022-11-14T08:02:57.023Z,9.27
2022-11-14T08:06:58.917Z,8.18
2022-11-14T08:11:01.093Z,8.43
2022-11-14T08:15:02.983Z,8.77
2022-11-14T08:19:05.097Z,7.35
2022-11-14T08:23:09.681Z,7.55
2022-11-14T08:27:11.143Z,6.57
2022-11-14T08:31:13.769Z,6.43
2022-11-14T08:35:15.448Z,6.63
2022-11-14T08:39:16.942Z,6.05
2022-11-14T08:43:18.736Z,5.22
2022-11-14T08:47:20.210Z,4.00
2022-11-14T08:51:22.030Z,4.53
2022-11-14T08:55:23.797Z,4.13
2022-11-14T08:59:25.319Z,2.55
2022-11-14T09:03:26.890Z,3.90
2022-11-14T09:07:28.949Z,3.13
2022-11-14T09:11:30.721Z,3.25
2022-11-14T09:15:33.817Z,2.63
2022-11-14T09:19:36.188Z,2.72
2022-11-14T09:23:37.636Z,2.25
2022-11-14T09:27:39.250Z,2.78
2022-11-14T09:31:40.890Z,2.03
2022-11-14T09:35:42.566Z,2.40
2022-11-14T09:39:43.984Z,2.28
2022-11-14T09:44:06.724Z,2.20
2022-11-14T09:48:12.938Z,2.30
2022-11-14T09:52:38.187Z,2.75
2022-11-14T09:56:39.656Z,2.13
2022-11-14T10:01:08.908Z,2.85
2022-11-14T10:05:29.823Z,2.53
2022-11-14T10:09:37.960Z,2.80
2022-11-14T10:13:47.215Z,2.72
2022-11-14T10:18:23.078Z,1.70
2022-11-14T10:22:35.217Z,1.88
2022-11-14T10:26:40.213Z,15.57
2022-11-14T10:30:54.864Z,1.92
2022-11-14T10:35:24.800Z,1.75
2022-11-14T10:39:39.777Z,1.63
2022-11-14T10:43:47.028Z,1.77
2022-11-14T10:48:16.104Z,1.58
2022-11-14T10:52:20.281Z,1.55
2022-11-14T10:56:22.148Z,1.48
2022-11-14T11:00:23.609Z,1.73
2022-11-14T11:04:32.505Z,2.30
2022-11-14T11:09:00.741Z,2.00
2022-11-14T11:13:02.332Z,2.03
2022-11-14T11:17:12.917Z,2.45
2022-11-14T11:21:16.788Z,1.85
2022-11-14T11:25:27.014Z,1.60
2022-11-14T11:29:28.489Z,1.80
2022-11-14T11:33:32.404Z,1.67
2022-11-14T11:37:41.035Z,1.63
2022-11-14T11:42:07.618Z,1.20
2022-11-14T11:46:10.289Z,1.20
2022-11-14T11:50:17.617Z,1.55
2022-11-14T11:54:20.725Z,1.80
2022-11-14T11:58:31.854Z,1.80
2022-11-14T12:02:36.765Z,1.15
2022-11-14T12:06:47.360Z,1.38
2022-11-14T12:10:49.425Z,1.23
2022-11-14T12:15:16.645Z,1.60
2022-11-14T12:19:18.276Z,1.48
2022-11-14T12:23:37.994Z,1.27
2022-11-14T12:27:52.655Z,2.20
2022-11-14T12:32:02.526Z,1.60
2022-11-14T12:36:08.396Z,1.63
2022-11-14T12:40:23.334Z,1.42
2022-11-14T12:44:27.598Z,1.77
2022-11-14T12:48:31.496Z,2.17
2022-11-14T12:52:44.915Z,1.67
2022-11-14T12:56:59.766Z,2.13
2022-11-14T13:01:38.156Z,1.17
2022-11-14T13:05:59.988Z,1.38
2022-11-14T13:10:14.312Z,1.95
2022-11-14T13:14:35.626Z,1.23
2022-11-14T13:19:09.392Z,1.40
2022-11-14T13:23:25.955Z,1.73
2022-11-14T13:28:05.367Z,1.30
2022-11-14T13:31:55.824Z,1.40
2022-11-14T13:36:04.839Z,1.40
2022-11-14T13:40:28.882Z,1.65
2022-11-14T13:44:38.811Z,1.30
2022-11-14T13:49:04.849Z,1.35
2022-11-14T13:53:24.934Z,2.33
2022-11-14T13:57:42.383Z,1.60
2022-11-14T14:02:08.457Z,1.70
2022-11-14T14:06:26.080Z,1.83
2022-11-14T14:14:54.097Z,1.77
2022-11-14T14:19:04.673Z,1.92
2022-11-14T14:23:22.139Z,1.40
2022-11-14T14:27:29.696Z,2.08
2022-11-14T14:31:41.796Z,2.00
2022-11-14T14:35:52.096Z,2.20
2022-11-14T14:40:06.243Z,1.85
2022-11-14T14:44:19.369Z,2.47
2022-11-14T14:48:27.236Z,1.60
2022-11-14T14:52:36.940Z,1.95
2022-11-14T14:56:39.004Z,1.70
2022-11-14T15:00:40.681Z,1.48
2022-11-14T15:04:42.403Z,2.20
2022-11-14T15:08:44.781Z,1.63
2022-11-14T15:12:46.602Z,2.20
2022-11-14T15:16:50.794Z,1.77
2022-11-14T15:21:15.736Z,1.92
2022-11-14T15:25:20.452Z,2.92
2022-11-14T15:29:27.297Z,2.67
2022-11-14T15:33:34.245Z,1.95
2022-11-14T15:37:35.790Z,2.43
2022-11-14T15:41:37.191Z,1.60
2022-11-14T15:45:40.430Z,1.95
2022-11-14T15:49:54.056Z,2.17
2022-11-14T15:53:55.877Z,2.42
2022-11-14T15:58:21.382Z,2.33
2022-11-14T16:02:25.107Z,3.63
2022-11-14T16:06:26.607Z,4.28
2022-11-14T16:10:28.619Z,3.63
2022-11-14T16:14:30.312Z,3.70
2022-11-14T16:18:31.877Z,3.25
2022-11-14T16:22:33.573Z,2.42
2022-11-14T16:26:36.004Z,2.95
2022-11-14T16:30:37.712Z,2.47
2022-11-14T16:34:39.330Z,2.75
2022-11-14T16:38:41.007Z,2.83
2022-11-14T16:42:43.176Z,2.83
2022-11-14T16:46:45.795Z,2.90
2022-11-14T16:50:47.462Z,3.33
2022-11-14T16:54:49.140Z,3.10
2022-11-14T16:58:54.768Z,2.92
2022-11-14T17:02:56.392Z,3.13
2022-11-14T17:06:57.861Z,3.03
2022-11-14T17:11:00.064Z,3.55
2022-11-14T17:15:01.732Z,2.97
2022-11-14T17:19:03.645Z,4.10
2022-11-14T17:23:05.153Z,3.88
2022-11-14T17:27:07.463Z,4.13
2022-11-14T17:31:09.398Z,4.20
2022-11-14T17:35:11.342Z,4.43
2022-11-14T17:39:13.054Z,4.60
2022-11-14T17:43:17.060Z,4.38
2022-11-14T17:47:19.583Z,4.55
2022-11-14T17:51:21.028Z,3.53
2022-11-14T17:55:22.477Z,4.07
2022-11-14T17:59:23.945Z,4.70
2022-11-14T18:03:26.807Z,4.25
2022-11-14T18:07:30.226Z,5.72
2022-11-14T18:11:32.452Z,4.80
2022-11-14T18:15:34.581Z,4.65
2022-11-14T18:19:38.823Z,3.90
2022-11-14T18:23:40.613Z,3.15
2022-11-14T18:27:42.430Z,4.45
2022-11-14T18:31:44.013Z,3.45
2022-11-14T18:35:55.143Z,3.55
2022-11-14T18:39:56.658Z,2.78
2022-11-14T18:43:58.639Z,3.00
2022-11-14T18:48:00.264Z,3.60
2022-11-14T18:52:09.133Z,5.10
2022-11-14T18:56:18.613Z,5.10
2022-11-14T19:00:20.361Z,4.22
2022-11-14T19:04:23.874Z,3.50
2022-11-14T19:08:25.319Z,2.67
2022-11-14T19:12:26.848Z,2.97
2022-11-14T19:16:29.153Z,3.08
2022-11-14T19:20:30.670Z,2.55
2022-11-14T19:24:32.717Z,2.67
2022-11-14T19:28:34.174Z,3.90
2022-11-14T19:32:35.885Z,2.33
2022-11-14T19:36:58.983Z,2.60
2022-11-14T19:41:22.335Z,2.92
2022-11-14T19:45:24.479Z,2.60
2022-11-14T19:49:26.086Z,2.80
2022-11-14T19:53:27.718Z,2.90
2022-11-14T19:57:31.004Z,3.10
2022-11-14T20:01:32.558Z,4.13
2022-11-14T20:05:34.290Z,4.25
2022-11-14T20:09:35.748Z,4.78
2022-11-14T20:13:39.383Z,5.38
2022-11-14T20:17:41.003Z,4.13
2022-11-14T20:21:43.275Z,4.32
2022-11-14T20:25:50.997Z,5.45
2022-11-14T20:33:54.748Z,3.80
2022-11-14T20:38:00.495Z,4.15
2022-11-14T20:42:05.036Z,4.53
2022-11-14T20:46:15.224Z,4.50
2022-11-14T20:50:17.456Z,7.68
2022-11-14T20:54:18.903Z,5.47
2022-11-14T20:58:20.769Z,4.82
2022-11-14T21:02:22.308Z,4.93
2022-11-14T21:06:24.373Z,3.88
2022-11-14T21:10:44.508Z,4.75
2022-11-14T21:14:46.003Z,4.07
2022-11-14T21:18:48.232Z,4.13
2022-11-14T21:22:49.846Z,4.63
2022-11-14T21:26:51.331Z,5.03
2022-11-14T21:30:52.856Z,4.45
2022-11-14T21:34:54.307Z,4.43
2022-11-14T21:38:56.194Z,4.22
2022-11-14T21:42:57.672Z,4.72
2022-11-14T21:46:59.124Z,9.73
2022-11-14T21:51:13.917Z,5.55
2022-11-14T21:55:16.156Z,7.43
2022-11-14T21:59:21.405Z,8.30
2022-11-14T22:03:42.270Z,8.05
2022-11-14T22:07:44.063Z,6.30
2022-11-14T22:11:45.744Z,5.35
2022-11-14T22:15:47.398Z,4.70
2022-11-14T22:19:48.835Z,5.20
2022-11-14T22:23:53.813Z,7.82
2022-11-14T22:27:55.499Z,7.30
2022-11-14T22:31:57.132Z,5.53
2022-11-14T22:36:07.018Z,5.97
2022-11-14T22:40:11.153Z,5.53
2022-11-14T22:44:12.609Z,4.60
2022-11-14T22:48:14.410Z,4.57
2022-11-14T22:52:15.870Z,4.75
2022-11-14T22:56:19.175Z,5.32
2022-11-14T23:00:20.720Z,5.55
2022-11-14T23:04:22.149Z,5.78
2022-11-14T23:08:23.714Z,6.07
2022-11-14T23:12:25.362Z,4.60
2022-11-14T23:16:32.459Z,5.10
2022-11-14T23:20:35.793Z,6.32
2022-11-14T23:24:37.212Z,4.60
2022-11-14T23:28:39.163Z,5.55
2022-11-14T23:32:40.632Z,4.47
2022-11-14T23:36:42.540Z,3.97
2022-11-14T23:40:44.028Z,4.22
2022-11-14T23:44:46.275Z,3.92
2022-11-14T23:48:47.843Z,3.90
2022-11-14T23:52:49.616Z,4.20
2022-11-14T23:56:51.387Z,4.43
